createdAt,value
2023-03-06T00:00:56.153Z,34.35
2023-03-06T00:03:22.870Z,35.67
2023-03-06T00:05:49.724Z,36.40
2023-03-06T00:08:16.274Z,36.70
2023-03-06T00:10:42.705Z,38.08
2023-03-06T00:13:11.391Z,37.45
2023-03-06T00:15:37.805Z,38.47
2023-03-06T00:18:06.362Z,38.95
2023-03-06T00:20:33.235Z,37.03
2023-03-06T00:22:59.626Z,41.95
2023-03-06T00:25:26.290Z,43.03
2023-03-06T00:27:52.937Z,45.05
2023-03-06T00:30:20.629Z,43.25
2023-03-06T00:32:47.399Z,43.00
2023-03-06T00:35:15.495Z,47.28
2023-03-06T00:37:41.876Z,46.20
2023-03-06T00:40:09.578Z,45.50
2023-03-06T00:42:36.054Z,42.80
2023-03-06T00:45:02.537Z,42.45
2023-03-06T00:47:28.951Z,42.15
2023-03-06T00:49:55.461Z,41.10
2023-03-06T00:52:23.356Z,41.38
2023-03-06T00:54:49.804Z,39.85
2023-03-06T00:57:16.350Z,40.38
2023-03-06T00:59:42.894Z,41.35
2023-03-06T01:02:09.841Z,43.70
2023-03-06T01:04:36.407Z,47.72
2023-03-06T01:07:02.833Z,46.63
2023-03-06T01:09:30.673Z,47.35
2023-03-06T01:11:57.266Z,45.33
2023-03-06T01:14:23.800Z,44.85
2023-03-06T01:16:50.534Z,44.15
2023-03-06T01:19:17.182Z,43.92
2023-03-06T01:21:43.600Z,45.88
2023-03-06T01:24:10.006Z,46.50
2023-03-06T01:26:37.824Z,47.80
2023-03-06T01:29:04.322Z,46.55
2023-03-06T01:31:30.823Z,44.75
2023-03-06T01:33:57.370Z,44.70
2023-03-06T01:36:23.763Z,44.83
2023-03-06T01:38:50.319Z,46.25
2023-03-06T01:41:17.218Z,48.17
2023-03-06T01:43:46.272Z,47.83
2023-03-06T01:46:31.281Z,48.83
2023-03-06T01:48:59.234Z,48.78
2023-03-06T01:51:27.218Z,47.80
2023-03-06T01:53:54.247Z,49.45
2023-03-06T01:56:20.681Z,51.45
2023-03-06T01:58:48.501Z,51.47
2023-03-06T02:01:15.505Z,50.25
2023-03-06T02:03:42.408Z,50.13
2023-03-06T02:06:09.429Z,47.97
2023-03-06T02:08:35.814Z,48.42
2023-03-06T02:11:06.483Z,51.45
2023-03-06T02:13:33.188Z,50.88
2023-03-06T02:16:01.105Z,50.15
2023-03-06T02:18:27.858Z,49.90
2023-03-06T02:20:56.708Z,49.08
2023-03-06T02:23:28.160Z,48.23
2023-03-06T02:25:56.795Z,49.13
2023-03-06T02:28:24.015Z,48.15
2023-03-06T02:30:51.533Z,47.92
2023-03-06T02:33:19.484Z,47.30
2023-03-06T02:35:49.602Z,45.95
2023-03-06T02:38:17.656Z,45.05
2023-03-06T02:40:44.613Z,44.47
2023-03-06T02:43:13.249Z,45.15
2023-03-06T02:45:41.020Z,43.88
2023-03-06T02:48:07.487Z,43.15
2023-03-06T02:50:33.889Z,42.33
2023-03-06T02:53:00.377Z,41.88
2023-03-06T02:55:26.809Z,41.03
2023-03-06T02:57:53.272Z,40.70
2023-03-06T03:00:21.521Z,39.50
2023-03-06T03:02:47.929Z,40.10
2023-03-06T03:05:14.452Z,40.70
2023-03-06T03:07:40.958Z,39.75
2023-03-06T03:10:08.217Z,37.88
2023-03-06T03:12:34.657Z,39.72
2023-03-06T03:15:01.179Z,39.20
2023-03-06T03:17:29.044Z,38.15
2023-03-06T03:19:55.537Z,37.45
2023-03-06T03:22:22.266Z,38.22
2023-03-06T03:24:48.723Z,37.83
2023-03-06T03:27:15.268Z,37.88
2023-03-06T03:29:41.637Z,37.33
2023-03-06T03:32:08.298Z,38.60
2023-03-06T03:34:36.185Z,37.13
2023-03-06T03:37:02.648Z,38.08
2023-03-06T03:39:29.128Z,37.80
2023-03-06T03:41:55.530Z,37.08
2023-03-06T03:44:21.990Z,36.67
2023-03-06T03:46:48.485Z,36.58
2023-03-06T03:49:15.161Z,36.90
2023-03-06T03:51:43.294Z,37.03
2023-03-06T03:54:10.104Z,36.55
2023-03-06T03:56:36.610Z,36.42
2023-03-06T03:59:03.065Z,37.53
2023-03-06T04:01:29.505Z,38.35
2023-03-06T04:03:55.941Z,37.95
2023-03-06T04:06:22.373Z,38.75
2023-03-06T04:08:50.235Z,39.40
2023-03-06T04:11:16.775Z,39.03
2023-03-06T04:13:43.278Z,37.50
2023-03-06T04:16:09.689Z,37.03
2023-03-06T04:18:36.240Z,40.15
2023-03-06T04:21:02.649Z,37.90
2023-03-06T04:23:29.324Z,36.45
2023-03-06T04:25:57.227Z,37.28
2023-03-06T04:28:23.738Z,37.15
2023-03-06T04:30:50.140Z,38.38
2023-03-06T04:33:16.566Z,39.47
2023-03-06T04:35:43.070Z,36.53
2023-03-06T04:38:09.585Z,36.65
2023-03-06T04:40:36.296Z,38.33
2023-03-06T04:43:04.805Z,39.00
2023-03-06T04:45:32.336Z,37.95
2023-03-06T04:47:59.004Z,37.95
2023-03-06T04:50:25.917Z,35.97
2023-03-06T04:52:52.368Z,36.38
2023-03-06T04:55:19.559Z,38.05
2023-03-06T04:57:46.672Z,35.58
2023-03-06T05:00:16.256Z,34.80
2023-03-06T05:02:43.055Z,34.92
2023-03-06T05:05:10.262Z,36.17
2023-03-06T05:07:36.671Z,36.08
2023-03-06T05:10:03.440Z,37.25
2023-03-06T05:12:29.803Z,38.17
2023-03-06T05:14:57.494Z,36.20
2023-03-06T05:17:25.340Z,37.10
2023-03-06T05:19:51.877Z,37.72
2023-03-06T05:22:18.398Z,35.63
2023-03-06T05:24:44.793Z,34.78
2023-03-06T05:27:11.263Z,35.33
2023-03-06T05:29:37.766Z,36.40
2023-03-06T05:32:04.414Z,36.78
2023-03-06T05:34:32.376Z,36.83
2023-03-06T05:36:58.788Z,36.90
2023-03-06T05:39:25.335Z,35.08
2023-03-06T05:41:51.722Z,35.63
2023-03-06T05:44:18.307Z,36.50
2023-03-06T05:46:44.752Z,35.60
2023-03-06T05:49:11.276Z,35.67
2023-03-06T05:51:39.117Z,36.80
2023-03-06T05:54:05.554Z,35.22
2023-03-06T05:56:31.930Z,34.25
2023-03-06T05:58:58.407Z,34.88
2023-03-06T06:01:24.870Z,35.70
2023-03-06T06:03:51.372Z,36.28
2023-03-06T06:06:18.276Z,34.38
2023-03-06T06:08:46.156Z,34.33
2023-03-06T06:11:13.275Z,36.45
2023-03-06T06:13:39.842Z,36.80
2023-03-06T06:16:06.831Z,36.42
2023-03-06T06:18:33.333Z,34.55
2023-03-06T06:20:59.754Z,34.60
2023-03-06T06:23:26.294Z,35.15
2023-03-06T06:25:54.191Z,34.05
2023-03-06T06:28:20.601Z,34.97
2023-03-06T06:30:47.040Z,35.45
2023-03-06T06:33:13.486Z,36.85
2023-03-06T06:35:39.917Z,36.92
2023-03-06T06:38:06.379Z,33.38
2023-03-06T06:40:32.808Z,34.08
2023-03-06T06:43:00.672Z,35.20
2023-03-06T06:45:27.167Z,35.17
2023-03-06T06:47:53.810Z,35.15
2023-03-06T06:50:20.304Z,34.65
2023-03-06T06:52:46.830Z,35.50
2023-03-06T06:55:13.381Z,36.03
2023-03-06T06:57:40.204Z,35.58
2023-03-06T07:00:09.330Z,35.28
2023-03-06T07:02:35.739Z,35.97
2023-03-06T07:05:05.342Z,37.85
2023-03-06T07:07:33.719Z,35.88
2023-03-06T07:10:00.304Z,36.65
2023-03-06T07:12:26.742Z,35.80
2023-03-06T07:14:53.232Z,34.40
2023-03-06T07:17:21.148Z,33.75
2023-03-06T07:19:47.566Z,33.08
2023-03-06T07:22:14.029Z,33.05
2023-03-06T07:24:40.537Z,33.17
2023-03-06T07:27:07.015Z,32.65
2023-03-06T07:29:33.471Z,32.55
2023-03-06T07:32:00.392Z,30.75
2023-03-06T07:34:28.357Z,30.13
2023-03-06T07:36:54.738Z,29.67
2023-03-06T07:39:21.275Z,29.98
2023-03-06T07:41:47.708Z,30.40
2023-03-06T07:44:14.196Z,29.75
2023-03-06T07:46:40.808Z,30.42
2023-03-06T07:49:07.317Z,32.00
2023-03-06T07:51:35.168Z,30.45
2023-03-06T07:54:01.606Z,31.23
2023-03-06T07:56:28.106Z,30.40
2023-03-06T07:58:56.089Z,30.50
2023-03-06T08:01:23.618Z,30.77
2023-03-06T08:03:50.504Z,31.08
2023-03-06T08:06:17.717Z,30.65
2023-03-06T08:08:46.011Z,29.67
2023-03-06T08:11:13.481Z,28.60
2023-03-06T08:13:40.341Z,29.55
2023-03-06T08:16:07.093Z,29.83
2023-03-06T08:18:33.826Z,31.63
2023-03-06T08:21:04.007Z,28.35
2023-03-06T08:23:30.867Z,29.65
2023-03-06T08:25:59.738Z,29.17
2023-03-06T08:28:26.284Z,29.13
2023-03-06T08:30:52.890Z,30.08
2023-03-06T08:33:19.364Z,31.05
2023-03-06T08:35:45.902Z,28.23
2023-03-06T08:38:12.422Z,28.80
2023-03-06T08:40:38.832Z,27.73
2023-03-06T08:43:37.074Z,29.17
2023-03-06T08:46:03.972Z,30.30
2023-03-06T08:48:30.533Z,30.20
2023-03-06T08:50:57.049Z,29.48
2023-03-06T08:53:33.449Z,28.80
2023-03-06T08:56:15.007Z,27.13
2023-03-06T08:58:42.905Z,27.27
2023-03-06T09:01:12.473Z,28.30
2023-03-06T09:03:38.897Z,28.52
2023-03-06T09:06:05.441Z,26.35
2023-03-06T09:08:31.885Z,24.25
2023-03-06T09:10:58.411Z,24.80
2023-03-06T09:13:24.974Z,22.15
2023-03-06T09:15:52.835Z,21.63
2023-03-06T09:18:19.257Z,22.15
2023-03-06T09:20:45.718Z,22.45
2023-03-06T09:23:12.153Z,22.02
2023-03-06T09:25:38.611Z,21.77
2023-03-06T09:28:11.283Z,23.02
2023-03-06T09:30:39.614Z,21.08
2023-03-06T09:33:07.515Z,21.23
2023-03-06T09:35:34.019Z,23.23
2023-03-06T09:38:00.530Z,23.13
2023-03-06T09:40:34.701Z,22.40
2023-03-06T09:43:01.262Z,21.63
2023-03-06T09:45:28.171Z,21.20
2023-03-06T09:47:58.262Z,20.65
2023-03-06T09:50:38.407Z,21.75
2023-03-06T09:53:12.159Z,21.58
2023-03-06T09:55:40.239Z,21.40
2023-03-06T09:58:11.072Z,20.48
2023-03-06T10:00:38.800Z,19.33
2023-03-06T10:03:13.467Z,18.45
2023-03-06T10:05:43.180Z,19.08
2023-03-06T10:10:40.237Z,19.60
2023-03-06T10:13:13.750Z,20.58
2023-03-06T10:15:41.482Z,20.02
2023-03-06T10:18:10.264Z,21.13
2023-03-06T10:20:41.110Z,19.60
2023-03-06T10:23:25.543Z,20.65
2023-03-06T10:25:56.602Z,19.98
2023-03-06T10:28:27.718Z,21.05
2023-03-06T10:30:57.510Z,19.33
2023-03-06T10:33:30.256Z,19.90
2023-03-06T10:35:56.776Z,20.13
2023-03-06T10:38:23.957Z,18.40
2023-03-06T10:41:08.385Z,19.75
2023-03-06T10:43:36.822Z,18.70
2023-03-06T10:46:04.291Z,18.38
2023-03-06T10:48:31.409Z,19.02
2023-03-06T10:51:18.577Z,19.20
2023-03-06T10:53:52.431Z,18.55
2023-03-06T10:56:29.220Z,19.92
2023-03-06T10:59:07.180Z,18.70
2023-03-06T11:01:34.069Z,18.42
2023-03-06T11:04:14.354Z,17.30
2023-03-06T11:06:40.933Z,16.90
2023-03-06T11:09:14.927Z,16.90
2023-03-06T11:11:41.384Z,17.10
2023-03-06T11:14:14.172Z,15.68
2023-03-06T11:16:40.676Z,13.75
2023-03-06T11:19:17.839Z,14.60
2023-03-06T11:21:58.694Z,15.18
2023-03-06T11:24:25.282Z,16.10
2023-03-06T11:26:54.301Z,15.82
2023-03-06T11:29:29.786Z,15.35
2023-03-06T11:31:59.789Z,14.20
2023-03-06T11:34:31.091Z,14.73
2023-03-06T11:37:00.386Z,15.40
2023-03-06T11:39:34.325Z,15.68
2023-03-06T11:42:03.627Z,13.75
2023-03-06T11:44:41.927Z,12.65
2023-03-06T11:47:13.062Z,12.80
2023-03-06T11:49:40.818Z,12.07
2023-03-06T11:52:16.482Z,12.02
2023-03-06T11:54:42.901Z,11.68
2023-03-06T11:57:14.248Z,12.15
2023-03-06T11:59:50.942Z,11.48
2023-03-06T12:02:24.181Z,11.68
2023-03-06T12:04:53.954Z,10.95
2023-03-06T12:07:22.243Z,11.27
2023-03-06T12:09:52.293Z,11.05
2023-03-06T12:12:22.343Z,10.18
2023-03-06T12:14:57.264Z,11.18
2023-03-06T12:17:31.699Z,10.50
2023-03-06T12:20:06.829Z,10.68
2023-03-06T12:22:58.076Z,10.48
2023-03-06T12:25:34.728Z,11.07
2023-03-06T12:28:12.762Z,10.30
2023-03-06T12:31:00.522Z,11.00
2023-03-06T12:33:31.351Z,10.63
2023-03-06T12:36:03.295Z,11.60
2023-03-06T12:38:39.633Z,11.50
2023-03-06T12:41:12.031Z,11.88
2023-03-06T12:43:57.262Z,11.10
2023-03-06T12:46:24.348Z,11.65
2023-03-06T12:48:57.924Z,11.75
2023-03-06T12:51:24.566Z,11.80
2023-03-06T12:53:51.402Z,12.20
2023-03-06T12:56:18.219Z,11.23
2023-03-06T12:58:48.658Z,11.27
2023-03-06T13:01:18.314Z,12.00
2023-03-06T13:03:54.244Z,12.30
2023-03-06T13:06:36.534Z,13.00
2023-03-06T13:09:14.723Z,11.48
2023-03-06T13:11:58.599Z,11.57
2023-03-06T13:14:25.726Z,11.90
2023-03-06T13:16:52.335Z,11.70
2023-03-06T13:19:20.165Z,11.50
2023-03-06T13:22:07.563Z,10.75
2023-03-06T13:24:36.245Z,11.30
2023-03-06T13:27:04.302Z,11.90
2023-03-06T13:30:00.587Z,12.15
2023-03-06T13:32:31.263Z,12.23
2023-03-06T13:34:57.795Z,11.80
2023-03-06T13:37:38.018Z,11.52
2023-03-06T13:40:21.864Z,12.15
2023-03-06T13:43:12.292Z,10.35
2023-03-06T13:45:40.437Z,10.88
2023-03-06T13:48:30.210Z,12.13
2023-03-06T13:50:53.366Z,11.10
2023-03-06T13:53:26.748Z,11.52
2023-03-06T13:56:01.477Z,11.25
2023-03-06T13:58:37.655Z,10.25
2023-03-06T14:01:14.730Z,10.73
2023-03-06T14:03:53.264Z,11.68
2023-03-06T14:06:43.514Z,11.60
2023-03-06T14:09:14.714Z,11.30
2023-03-06T14:11:45.855Z,11.48
2023-03-06T14:14:12.720Z,10.85
2023-03-06T14:16:49.443Z,10.85
2023-03-06T14:19:17.592Z,9.80
2023-03-06T14:21:46.128Z,10.30
2023-03-06T14:24:15.120Z,10.00
2023-03-06T14:26:43.933Z,11.00
2023-03-06T14:29:20.562Z,10.50
2023-03-06T14:31:49.236Z,11.82
2023-03-06T14:34:17.706Z,10.73
2023-03-06T14:36:45.232Z,10.90
2023-03-06T14:39:12.745Z,10.65
2023-03-06T14:41:39.390Z,11.30
2023-03-06T14:44:16.400Z,11.25
2023-03-06T14:46:44.395Z,10.65
2023-03-06T14:49:12.485Z,10.75
2023-03-06T14:51:41.308Z,10.45
2023-03-06T14:54:10.912Z,10.38
2023-03-06T14:59:04.916Z,10.23
2023-03-06T15:01:34.926Z,10.52
2023-03-06T15:04:06.371Z,10.75
2023-03-06T15:06:34.635Z,10.88
2023-03-06T15:09:02.572Z,10.30
2023-03-06T15:11:44.159Z,10.80
2023-03-06T15:14:17.293Z,10.60
2023-03-06T15:16:43.938Z,10.43
2023-03-06T15:19:17.254Z,11.18
2023-03-06T15:21:46.367Z,10.95
2023-03-06T15:24:33.226Z,11.20
2023-03-06T15:27:00.886Z,11.05
2023-03-06T15:29:27.481Z,10.88
2023-03-06T15:32:12.164Z,11.65
2023-03-06T15:34:40.122Z,11.25
2023-03-06T15:37:19.240Z,10.77
2023-03-06T15:39:45.746Z,11.23
2023-03-06T15:42:19.356Z,11.90
2023-03-06T15:44:50.332Z,12.27
2023-03-06T15:47:17.006Z,11.57
2023-03-06T15:49:44.805Z,12.65
2023-03-06T15:52:11.383Z,12.60
2023-03-06T15:54:37.990Z,12.32
2023-03-06T15:57:05.482Z,12.15
2023-03-06T15:59:35.329Z,11.52
2023-03-06T16:02:03.803Z,7.20
2023-03-06T16:04:30.339Z,4.20
2023-03-06T16:06:58.308Z,4.07
2023-03-06T16:09:24.753Z,3.47
2023-03-06T16:11:51.216Z,4.00
2023-03-06T16:14:18.959Z,3.63
2023-03-06T16:16:45.822Z,4.05
2023-03-06T16:19:25.360Z,3.53
2023-03-06T16:21:53.260Z,3.28
2023-03-06T16:24:21.307Z,2.80
2023-03-06T16:26:48.985Z,3.20
2023-03-06T16:29:16.668Z,3.53
2023-03-06T16:31:43.589Z,3.28
2023-03-06T16:34:10.218Z,3.30
2023-03-06T16:36:36.654Z,3.00
2023-03-06T16:39:03.152Z,3.58
2023-03-06T16:41:30.980Z,3.47
2023-03-06T16:43:57.441Z,3.70
2023-03-06T16:46:24.735Z,3.78
2023-03-06T16:48:53.096Z,3.60
2023-03-06T16:51:20.845Z,3.55
2023-03-06T16:53:47.467Z,3.67
2023-03-06T16:56:14.978Z,3.53
2023-03-06T16:58:43.056Z,3.33
2023-03-06T17:01:10.297Z,3.88
2023-03-06T17:03:36.725Z,4.57
2023-03-06T17:06:03.570Z,3.72
2023-03-06T17:08:30.128Z,4.15
2023-03-06T17:10:56.591Z,3.95
2023-03-06T17:13:23.083Z,4.22
2023-03-06T17:15:51.804Z,3.80
2023-03-06T17:18:18.331Z,4.30
2023-03-06T17:20:48.233Z,4.05
2023-03-06T17:23:14.691Z,4.25
2023-03-06T17:25:41.106Z,4.32
2023-03-06T17:28:07.517Z,4.47
2023-03-06T17:30:33.964Z,4.05
2023-03-06T17:33:01.772Z,4.25
2023-03-06T17:35:28.373Z,4.95
2023-03-06T17:37:54.901Z,4.63
2023-03-06T17:40:21.351Z,4.07
2023-03-06T17:42:47.741Z,3.72
2023-03-06T17:45:14.296Z,4.20
2023-03-06T17:47:40.772Z,4.30
2023-03-06T17:50:09.560Z,4.53
2023-03-06T17:52:36.065Z,4.40
2023-03-06T17:55:02.520Z,4.82
2023-03-06T17:57:28.940Z,5.00
2023-03-06T17:59:55.451Z,5.28
2023-03-06T18:02:21.887Z,4.93
2023-03-06T18:04:48.442Z,4.95
2023-03-06T18:07:16.305Z,5.53
2023-03-06T18:09:42.775Z,5.63
2023-03-06T18:12:09.399Z,6.18
2023-03-06T18:14:35.809Z,5.75
2023-03-06T18:17:02.281Z,5.55
2023-03-06T18:19:28.723Z,6.15
2023-03-06T18:21:55.311Z,5.95
2023-03-06T18:24:23.254Z,6.38
2023-03-06T18:26:50.015Z,5.88
2023-03-06T18:29:16.613Z,5.93
2023-03-06T18:31:43.330Z,5.97
2023-03-06T18:34:10.604Z,6.45
2023-03-06T18:36:37.560Z,5.72
2023-03-06T18:39:05.265Z,5.38
2023-03-06T18:41:33.171Z,5.63
2023-03-06T18:44:00.227Z,5.60
2023-03-06T18:46:29.446Z,5.45
2023-03-06T18:48:55.892Z,6.10
2023-03-06T18:51:22.420Z,6.10
2023-03-06T18:53:48.894Z,5.82
2023-03-06T18:56:16.229Z,5.70
2023-03-06T18:58:44.136Z,5.78
2023-03-06T19:01:10.921Z,6.15
2023-03-06T19:03:37.520Z,5.38
2023-03-06T19:06:04.592Z,5.07
2023-03-06T19:08:31.122Z,5.70
2023-03-06T19:11:01.472Z,6.25
2023-03-06T19:13:27.920Z,5.65
2023-03-06T19:15:55.753Z,5.72
2023-03-06T19:18:22.700Z,5.50
2023-03-06T19:20:49.215Z,5.60
2023-03-06T19:23:15.699Z,5.57
2023-03-06T19:25:42.255Z,5.90
2023-03-06T19:28:08.706Z,5.95
2023-03-06T19:30:35.139Z,6.45
2023-03-06T19:33:03.030Z,6.57
2023-03-06T19:35:29.551Z,6.75
2023-03-06T19:37:56.106Z,6.05
2023-03-06T19:40:22.570Z,7.05
2023-03-06T19:42:49.056Z,7.15
2023-03-06T19:45:15.632Z,7.18
2023-03-06T19:47:42.144Z,6.97
2023-03-06T19:50:10.917Z,7.20
2023-03-06T19:52:37.412Z,8.20
2023-03-06T19:55:04.178Z,8.25
2023-03-06T19:57:30.680Z,9.07
2023-03-06T19:59:58.659Z,10.30
2023-03-06T20:02:25.326Z,9.77
2023-03-06T20:04:52.066Z,11.13
2023-03-06T20:07:20.196Z,11.07
2023-03-06T20:09:46.587Z,11.07
2023-03-06T20:12:13.259Z,9.57
2023-03-06T20:14:39.873Z,9.95
2023-03-06T20:17:06.681Z,9.60
2023-03-06T20:19:33.537Z,8.98
2023-03-06T20:22:00.001Z,9.05
2023-03-06T20:24:27.832Z,7.88
2023-03-06T20:26:54.343Z,8.13
2023-03-06T20:29:20.775Z,8.25
2023-03-06T20:31:47.276Z,8.93
2023-03-06T20:34:13.736Z,9.30
2023-03-06T20:36:40.294Z,9.77
2023-03-06T20:39:07.526Z,10.43
2023-03-06T20:41:35.497Z,11.00
2023-03-06T20:44:02.840Z,10.73
2023-03-06T20:46:29.735Z,10.20
2023-03-06T20:48:56.272Z,10.60
2023-03-06T20:51:23.532Z,9.98
2023-03-06T20:53:50.744Z,9.65
2023-03-06T20:56:18.462Z,9.98
2023-03-06T20:58:46.488Z,9.98
2023-03-06T21:01:18.054Z,9.73
2023-03-06T21:03:44.724Z,10.35
2023-03-06T21:06:11.328Z,10.00
2023-03-06T21:08:37.800Z,9.20
2023-03-06T21:11:04.420Z,9.23
2023-03-06T21:13:30.798Z,10.25
2023-03-06T21:15:58.854Z,9.80
2023-03-06T21:18:25.405Z,9.95
2023-03-06T21:20:51.855Z,10.60
2023-03-06T21:23:18.300Z,10.98
2023-03-06T21:25:47.911Z,10.02
2023-03-06T21:30:40.705Z,9.43
2023-03-06T21:33:08.510Z,10.30
2023-03-06T21:35:36.659Z,10.07
2023-03-06T21:38:03.203Z,9.38
2023-03-06T21:40:29.649Z,10.02
2023-03-06T21:42:56.149Z,9.40
2023-03-06T21:45:22.533Z,9.57
2023-03-06T21:47:49.319Z,9.57
2023-03-06T21:50:17.579Z,9.50
2023-03-06T21:52:44.418Z,9.90
2023-03-06T21:55:10.848Z,9.85
2023-03-06T21:57:37.417Z,8.85
2023-03-06T22:00:04.253Z,9.45
2023-03-06T22:02:30.671Z,9.45
2023-03-06T22:04:57.154Z,9.45
2023-03-06T22:07:25.488Z,9.63
2023-03-06T22:09:52.137Z,8.93
2023-03-06T22:12:18.528Z,8.45
2023-03-06T22:14:45.375Z,8.45
2023-03-06T22:17:11.850Z,8.40
2023-03-06T22:19:38.415Z,9.05
2023-03-06T22:22:05.291Z,9.77
2023-03-06T22:24:33.121Z,8.93
2023-03-06T22:26:59.531Z,8.57
2023-03-06T22:29:26.509Z,8.30
2023-03-06T22:31:53.167Z,8.38
2023-03-06T22:34:19.777Z,8.40
2023-03-06T22:36:46.516Z,8.90
2023-03-06T22:39:13.367Z,8.88
2023-03-06T22:41:41.495Z,8.82
2023-03-06T22:44:14.288Z,8.73
2023-03-06T22:46:40.730Z,8.57
2023-03-06T22:49:07.510Z,8.43
2023-03-06T22:51:33.961Z,8.48
2023-03-06T22:54:00.422Z,9.20
2023-03-06T22:56:26.875Z,8.60
2023-03-06T22:58:54.740Z,8.57
2023-03-06T23:01:22.259Z,8.18
2023-03-06T23:03:49.597Z,8.43
2023-03-06T23:06:16.960Z,8.73
2023-03-06T23:08:44.351Z,8.30
2023-03-06T23:11:11.695Z,7.38
2023-03-06T23:13:38.567Z,7.85
2023-03-06T23:16:07.430Z,7.53
2023-03-06T23:18:34.308Z,7.85
2023-03-06T23:21:00.787Z,7.18
2023-03-06T23:23:27.261Z,7.40
2023-03-06T23:25:58.110Z,7.40
2023-03-06T23:28:24.610Z,7.93
2023-03-06T23:30:51.211Z,8.18
2023-03-06T23:33:19.075Z,8.32
2023-03-06T23:35:45.666Z,7.85
2023-03-06T23:38:12.263Z,7.97
2023-03-06T23:40:38.748Z,7.68
2023-03-06T23:43:05.392Z,6.90
2023-03-06T23:45:32.180Z,7.00
2023-03-06T23:47:58.708Z,6.70
2023-03-06T23:50:26.579Z,7.85
2023-03-06T23:52:53.089Z,7.40
2023-03-06T23:55:19.531Z,7.85
2023-03-06T23:57:45.986Z,8.00
